createdAt,value
2023-05-11T00:03:35.355Z,49474.56
2023-05-11T00:08:39.783Z,49466.56
2023-05-11T00:13:45.400Z,49446.56
2023-05-11T00:18:49.777Z,49442.56
2023-05-11T00:23:54.179Z,49454.56
2023-05-11T00:29:00.161Z,49422.59
2023-05-11T00:34:04.838Z,49446.56
2023-05-11T00:39:09.001Z,49426.59
2023-05-11T00:44:14.651Z,49446.56
2023-05-11T00:49:21.680Z,49462.56
2023-05-11T00:54:26.711Z,49436.56
2023-05-11T00:59:32.230Z,49428.59
2023-05-11T01:04:36.860Z,49430.56
2023-05-11T01:09:49.688Z,49418.59
2023-05-11T01:15:02.404Z,49412.59
2023-05-11T01:20:10.787Z,49408.59
2023-05-11T01:25:28.977Z,49410.59
2023-05-11T01:30:41.042Z,49382.59
2023-05-11T01:35:50.417Z,49396.59
2023-05-11T01:40:59.679Z,49376.63
2023-05-11T01:46:08.662Z,49388.59
2023-05-11T01:51:14.151Z,49402.59
2023-05-11T01:56:21.363Z,49382.59
2023-05-11T02:01:29.210Z,49364.63
2023-05-11T02:06:35.661Z,49350.63
2023-05-11T02:11:42.744Z,49406.59
2023-05-11T02:16:51.384Z,49384.59
2023-05-11T02:21:56.677Z,49390.59
2023-05-11T02:27:00.871Z,49404.59
2023-05-11T02:32:10.862Z,49412.59
2023-05-11T02:37:19.801Z,49394.59
2023-05-11T02:42:25.409Z,49384.59
2023-05-11T02:47:38.538Z,49378.63
2023-05-11T02:52:47.532Z,49398.59
2023-05-11T02:57:52.720Z,49386.59
2023-05-11T03:02:59.795Z,49410.59
2023-05-11T03:08:04.989Z,49454.56
2023-05-11T03:13:11.919Z,49374.63
2023-05-11T03:18:20.217Z,49420.59
2023-05-11T03:23:25.019Z,49420.59
2023-05-11T03:28:32.042Z,49438.56
2023-05-11T03:33:42.875Z,49442.56
2023-05-11T03:38:48.906Z,49448.56
2023-05-11T03:43:57.616Z,49462.56
2023-05-11T03:49:04.028Z,49486.53
2023-05-11T03:54:09.383Z,49506.53
2023-05-11T03:59:17.041Z,49496.53
2023-05-11T04:04:29.258Z,49524.53
2023-05-11T04:09:35.236Z,49530.50
2023-05-11T04:14:39.772Z,49526.50
2023-05-11T04:19:45.336Z,49498.53
2023-05-11T04:24:49.370Z,49502.53
2023-05-11T04:29:53.521Z,49492.53
2023-05-11T04:34:59.526Z,49498.53
2023-05-11T04:40:08.108Z,49480.53
2023-05-11T04:45:17.770Z,49510.53
2023-05-11T04:50:23.812Z,49510.53
2023-05-11T04:55:28.405Z,49528.50
2023-05-11T05:00:33.892Z,49514.53
2023-05-11T05:05:39.648Z,49538.50
2023-05-11T05:10:43.765Z,49598.47
2023-05-11T05:15:48.095Z,49610.47
2023-05-11T05:20:53.942Z,49586.47
2023-05-11T05:25:58.206Z,49620.47
2023-05-11T05:31:02.972Z,49646.44
2023-05-11T05:36:09.244Z,49694.41
2023-05-11T05:41:14.390Z,49788.34
2023-05-11T05:46:21.631Z,49842.31
2023-05-11T05:51:27.754Z,49794.34
2023-05-11T05:56:32.545Z,49912.28
2023-05-11T06:01:37.684Z,50534.00
2023-05-11T06:06:43.535Z,50737.94
2023-05-11T06:11:48.686Z,50256.13
2023-05-11T06:16:53.934Z,50304.09
2023-05-11T06:22:00.884Z,50442.03
2023-05-11T06:27:09.376Z,50675.94
2023-05-11T06:32:15.369Z,51063.81
2023-05-11T06:37:21.812Z,51397.75
2023-05-11T06:42:27.957Z,51841.72
2023-05-11T06:47:43.036Z,51237.78
2023-05-11T06:52:49.214Z,51249.78
2023-05-11T06:57:53.763Z,51849.72
2023-05-11T07:02:58.364Z,52221.72
2023-05-11T07:08:05.106Z,52403.72
2023-05-11T07:13:09.815Z,53291.91
2023-05-11T07:18:14.245Z,53099.84
2023-05-11T07:23:20.302Z,53594.00
2023-05-11T07:28:24.751Z,54418.41
2023-05-11T07:33:29.101Z,54566.50
2023-05-11T07:38:35.104Z,54034.19
2023-05-11T07:43:39.498Z,53213.88
2023-05-11T07:48:46.447Z,53133.84
2023-05-11T07:53:52.356Z,53555.97
2023-05-11T07:58:56.613Z,54708.59
2023-05-11T08:04:01.056Z,55319.03
2023-05-11T08:09:07.056Z,54390.38
2023-05-11T08:14:11.139Z,55329.06
2023-05-11T08:19:15.529Z,55519.22
2023-05-11T08:24:21.387Z,55389.09
2023-05-11T08:29:27.531Z,55617.28
2023-05-11T08:34:31.782Z,55649.31
2023-05-11T08:39:47.151Z,55377.09
2023-05-11T08:44:56.562Z,54840.69
2023-05-11T08:50:00.868Z,53672.03
2023-05-11T08:55:08.948Z,52547.72
2023-05-11T09:00:15.803Z,52759.75
2023-05-11T09:05:21.774Z,52961.81
2023-05-11T09:10:28.189Z,52921.78
2023-05-11T09:15:37.099Z,52217.72
2023-05-11T09:20:45.120Z,51425.75
2023-05-11T09:25:50.691Z,51659.72
2023-05-11T09:30:55.533Z,51785.72
2023-05-11T09:35:59.805Z,51547.75
2023-05-11T09:41:07.135Z,51533.75
2023-05-11T09:46:23.263Z,51741.72
2023-05-11T09:51:32.073Z,51707.72
2023-05-11T09:56:58.431Z,51325.78
2023-05-11T10:02:18.141Z,51121.81
2023-05-11T10:07:26.728Z,51205.78
2023-05-11T10:12:33.793Z,51149.81
2023-05-11T10:17:39.185Z,51281.78
2023-05-11T10:22:44.406Z,51429.75
2023-05-11T10:27:50.514Z,51163.81
2023-05-11T10:32:56.725Z,51291.78
2023-05-11T10:38:02.710Z,51345.75
2023-05-11T10:43:28.816Z,50993.84
2023-05-11T10:48:59.816Z,50897.88
2023-05-11T10:54:27.131Z,51021.84
2023-05-11T11:00:07.993Z,51271.78
2023-05-11T11:05:17.524Z,51093.81
2023-05-11T11:10:32.866Z,50985.84
2023-05-11T11:16:13.275Z,50941.88
2023-05-11T11:21:40.977Z,51011.84
2023-05-11T11:26:50.735Z,50747.91
2023-05-11T11:31:56.507Z,51129.81
2023-05-11T11:37:09.041Z,50861.88
2023-05-11T11:42:15.413Z,50893.88
2023-05-11T11:47:22.184Z,51025.84
2023-05-11T11:52:36.001Z,50973.84
2023-05-11T11:57:51.424Z,50841.88
2023-05-11T12:02:58.004Z,51191.78
2023-05-11T12:08:07.930Z,51135.81
2023-05-11T12:13:12.650Z,51233.78
2023-05-11T12:18:24.223Z,51349.78
2023-05-11T12:23:28.766Z,51573.72
2023-05-11T12:28:34.447Z,51501.75
2023-05-11T12:33:48.431Z,51309.78
2023-05-11T12:38:53.327Z,51381.75
2023-05-11T12:43:57.683Z,51659.72
2023-05-11T12:49:03.951Z,51277.78
2023-05-11T12:54:08.163Z,51645.72
2023-05-11T12:59:25.927Z,51757.72
2023-05-11T13:04:32.946Z,52157.69
2023-05-11T13:09:37.188Z,52329.72
2023-05-11T13:14:41.844Z,52685.75
2023-05-11T13:19:47.731Z,53057.81
2023-05-11T13:25:03.160Z,53361.91
2023-05-11T13:30:08.653Z,52791.78
2023-05-11T13:35:14.757Z,52973.81
2023-05-11T13:40:19.034Z,53085.84
2023-05-11T13:45:23.212Z,53491.97
2023-05-11T13:50:29.295Z,52955.81
2023-05-11T13:55:33.886Z,52981.81
2023-05-11T14:00:40.262Z,52985.81
2023-05-11T14:05:46.129Z,52773.75
2023-05-11T14:10:50.830Z,52549.72
2023-05-11T14:15:55.128Z,52917.78
2023-05-11T14:21:00.926Z,52419.72
2023-05-11T14:26:05.190Z,52125.69
2023-05-11T14:31:09.463Z,52141.69
2023-05-11T14:36:15.276Z,52481.72
2023-05-11T14:41:21.268Z,52411.72
2023-05-11T14:46:26.855Z,51933.69
2023-05-11T14:51:33.187Z,51875.72
2023-05-11T14:56:37.536Z,51565.72
2023-05-11T15:01:41.685Z,51257.78
2023-05-11T15:06:47.323Z,51439.75
2023-05-11T15:11:51.760Z,51437.75
2023-05-11T15:16:59.070Z,51487.75
2023-05-11T15:22:04.841Z,51725.72
2023-05-11T15:27:09.282Z,51397.75
2023-05-11T15:32:15.592Z,51369.75
2023-05-11T15:37:21.705Z,51521.75
2023-05-11T15:42:26.690Z,51441.75
2023-05-11T15:47:30.860Z,51431.75
2023-05-11T15:52:36.901Z,51163.81
2023-05-11T15:57:41.121Z,50933.88
2023-05-11T16:02:46.702Z,50745.91
2023-05-11T16:07:52.681Z,50621.97
2023-05-11T16:12:58.723Z,50625.97
2023-05-11T16:18:04.908Z,50639.97
2023-05-11T16:23:11.055Z,50482.03
2023-05-11T16:28:15.290Z,50406.06
2023-05-11T16:33:20.379Z,50354.06
2023-05-11T16:38:25.988Z,50324.09
2023-05-11T16:43:30.401Z,50256.13
2023-05-11T16:48:34.782Z,50244.13
2023-05-11T16:53:40.334Z,50248.13
2023-05-11T16:58:44.821Z,50198.13
2023-05-11T17:03:49.117Z,50182.16
2023-05-11T17:08:55.197Z,50178.16
2023-05-11T17:13:59.724Z,50168.16
2023-05-11T17:19:04.284Z,50134.16
2023-05-11T17:24:10.303Z,50106.19
2023-05-11T17:29:14.528Z,50086.19
2023-05-11T17:34:19.300Z,50082.19
2023-05-11T17:39:25.286Z,50072.19
2023-05-11T17:44:29.671Z,50050.22
2023-05-11T17:49:34.198Z,50020.22
2023-05-11T17:54:39.892Z,50006.25
2023-05-11T17:59:44.223Z,49992.25
2023-05-11T18:04:48.728Z,49974.25
2023-05-11T18:09:54.436Z,49928.28
2023-05-11T18:14:58.659Z,49910.28
2023-05-11T18:20:05.153Z,49924.28
2023-05-11T18:25:11.522Z,49874.31
2023-05-11T18:30:16.252Z,49928.28
2023-05-11T18:35:20.424Z,49890.31
2023-05-11T18:40:26.333Z,49858.31
2023-05-11T18:45:33.154Z,49856.31
2023-05-11T18:50:37.304Z,49866.31
2023-05-11T18:55:52.727Z,49856.31
2023-05-11T19:00:57.819Z,49806.34
2023-05-11T19:06:02.719Z,49804.34
2023-05-11T19:11:10.716Z,49784.34
2023-05-11T19:16:15.308Z,49774.38
2023-05-11T19:21:19.674Z,49778.38
2023-05-11T19:26:26.018Z,49740.38
2023-05-11T19:31:31.681Z,49770.38
2023-05-11T19:36:36.168Z,49742.38
2023-05-11T19:41:41.967Z,49730.38
2023-05-11T19:46:47.279Z,49702.41
2023-05-11T19:51:52.021Z,49678.41
2023-05-11T19:56:59.976Z,49682.41
2023-05-11T20:02:04.966Z,49634.44
2023-05-11T20:07:09.354Z,49690.41
2023-05-11T20:12:15.058Z,49674.44
2023-05-11T20:17:19.598Z,49676.41
2023-05-11T20:22:23.941Z,49638.44
2023-05-11T20:27:29.756Z,49626.44
2023-05-11T20:32:34.250Z,49622.47
2023-05-11T20:37:38.731Z,49634.44
2023-05-11T20:42:44.240Z,49602.47
2023-05-11T20:47:48.893Z,49602.47
2023-05-11T20:52:53.272Z,49584.47
2023-05-11T20:57:59.340Z,49586.47
2023-05-11T21:03:04.807Z,49586.47
2023-05-11T21:08:09.350Z,49608.47
2023-05-11T21:13:15.412Z,49550.50
2023-05-11T21:18:20.047Z,49558.50
2023-05-11T21:23:24.430Z,49578.47
2023-05-11T21:28:30.880Z,49526.50
2023-05-11T21:33:35.291Z,49520.53
2023-05-11T21:38:39.466Z,49510.53
2023-05-11T21:43:45.324Z,49520.53
2023-05-11T21:48:50.088Z,49506.53
2023-05-11T21:53:54.522Z,49538.50
2023-05-11T21:59:00.507Z,49500.53
2023-05-11T22:04:05.044Z,49490.53
2023-05-11T22:09:11.676Z,49514.53
2023-05-11T22:14:17.828Z,49494.53
2023-05-11T22:19:22.252Z,49486.53
2023-05-11T22:24:27.601Z,49454.56
2023-05-11T22:29:33.482Z,49466.56
2023-05-11T22:34:38.244Z,49474.56
2023-05-11T22:39:42.333Z,49434.56
2023-05-11T22:44:47.908Z,49434.56
2023-05-11T22:49:52.197Z,49442.56
2023-05-11T22:54:58.079Z,49410.59
2023-05-11T23:00:04.220Z,49464.56
2023-05-11T23:05:09.682Z,49438.56
2023-05-11T23:10:13.915Z,49432.56
2023-05-11T23:15:19.728Z,49402.59
2023-05-11T23:20:23.839Z,49406.59
2023-05-11T23:25:28.207Z,49438.56
2023-05-11T23:30:33.961Z,49412.59
2023-05-11T23:35:38.378Z,49386.59
2023-05-11T23:40:43.357Z,49384.59
2023-05-11T23:45:49.165Z,49406.59
2023-05-11T23:50:53.502Z,49390.59
2023-05-11T23:55:57.926Z,49394.59
